createdAt,value
2018-07-13T00:01:02.726Z,20.37
2018-07-13T00:03:32.081Z,20.18
2018-07-13T00:06:01.210Z,20.32
2018-07-13T00:08:30.923Z,20.39
2018-07-13T00:11:01.066Z,20.45
2018-07-13T00:13:30.198Z,20.34
2018-07-13T00:16:01.618Z,20.32
2018-07-13T00:18:30.985Z,20.40
2018-07-13T00:21:00.190Z,20.33
2018-07-13T00:23:31.472Z,20.44
2018-07-13T00:26:00.605Z,20.33
2018-07-13T00:28:29.733Z,20.28
2018-07-13T00:30:58.869Z,20.50
2018-07-13T00:33:28.033Z,20.18
2018-07-13T00:35:57.140Z,20.25
2018-07-13T00:38:26.289Z,20.27
2018-07-13T00:40:57.405Z,20.13
2018-07-13T00:43:26.529Z,20.34
2018-07-13T00:45:55.667Z,20.49
2018-07-13T00:48:24.793Z,20.06
2018-07-13T00:50:53.899Z,20.37
2018-07-13T00:53:24.077Z,20.27
2018-07-13T00:55:53.216Z,20.15
2018-07-13T00:58:22.366Z,20.06
2018-07-13T01:00:51.498Z,20.07
2018-07-13T01:03:20.654Z,20.22
2018-07-13T01:05:49.766Z,20.00
2018-07-13T01:08:18.938Z,19.87
2018-07-13T01:10:48.296Z,19.70
2018-07-13T01:13:17.626Z,19.81
2018-07-13T01:15:46.808Z,19.78
2018-07-13T01:18:15.914Z,19.73
2018-07-13T01:20:45.140Z,20.03
2018-07-13T01:23:14.269Z,19.95
2018-07-13T01:25:43.406Z,19.88
2018-07-13T01:28:12.614Z,19.52
2018-07-13T01:30:41.814Z,19.60
2018-07-13T01:33:10.961Z,19.50
2018-07-13T01:35:40.161Z,19.39
2018-07-13T01:38:09.301Z,19.92
2018-07-13T01:40:38.417Z,19.80
2018-07-13T01:43:11.177Z,19.83
2018-07-13T01:45:40.290Z,19.84
2018-07-13T01:48:09.417Z,19.91
2018-07-13T01:50:38.553Z,19.56
2018-07-13T01:53:07.674Z,19.44
2018-07-13T01:55:36.823Z,19.66
2018-07-13T01:58:05.901Z,19.60
2018-07-13T02:00:35.017Z,19.51
2018-07-13T02:03:04.125Z,19.58
2018-07-13T02:05:33.277Z,19.51
2018-07-13T02:08:02.418Z,19.62
2018-07-13T02:10:31.521Z,19.47
2018-07-13T02:13:00.667Z,19.35
2018-07-13T02:15:33.641Z,19.59
2018-07-13T02:18:02.810Z,19.20
2018-07-13T02:20:31.910Z,19.48
2018-07-13T02:23:01.017Z,19.20
2018-07-13T02:25:30.146Z,19.45
2018-07-13T02:27:59.257Z,19.42
2018-07-13T02:30:28.360Z,19.55
2018-07-13T02:32:57.525Z,19.20
2018-07-13T02:35:27.290Z,19.16
2018-07-13T02:37:56.404Z,19.39
2018-07-13T02:40:25.499Z,19.58
2018-07-13T02:42:54.633Z,19.38
2018-07-13T02:45:23.749Z,19.19
2018-07-13T02:47:52.937Z,19.13
2018-07-13T02:50:28.214Z,19.30
2018-07-13T02:52:57.317Z,19.30
2018-07-13T02:55:26.441Z,19.10
2018-07-13T02:57:55.578Z,19.20
2018-07-13T03:00:24.673Z,19.47
2018-07-13T03:02:53.781Z,19.15
2018-07-13T03:05:22.890Z,19.12
2018-07-13T03:07:52.081Z,18.99
2018-07-13T03:10:21.193Z,19.08
2018-07-13T03:12:50.281Z,19.15
2018-07-13T03:15:19.405Z,19.08
2018-07-13T03:17:48.517Z,19.33
2018-07-13T03:20:17.750Z,19.41
2018-07-13T03:22:47.898Z,19.13
2018-07-13T03:25:17.077Z,19.36
2018-07-13T03:27:46.202Z,19.10
2018-07-13T03:30:15.338Z,19.12
2018-07-13T03:32:44.462Z,19.39
2018-07-13T03:35:13.630Z,19.26
2018-07-13T03:37:42.761Z,19.27
2018-07-13T03:40:11.885Z,19.20
2018-07-13T03:42:41.073Z,19.33
2018-07-13T03:45:10.178Z,19.19
2018-07-13T03:47:39.317Z,18.99
2018-07-13T03:50:08.461Z,19.08
2018-07-13T03:52:37.610Z,19.21
2018-07-13T03:55:06.714Z,19.18
2018-07-13T03:57:35.829Z,19.16
2018-07-13T04:00:05.042Z,19.22
2018-07-13T04:02:34.252Z,19.34
2018-07-13T04:05:03.450Z,19.31
2018-07-13T04:07:32.541Z,18.93
2018-07-13T04:10:05.459Z,19.22
2018-07-13T04:12:34.650Z,19.08
2018-07-13T04:15:03.787Z,19.27
2018-07-13T04:17:32.934Z,19.09
2018-07-13T04:20:03.106Z,19.05
2018-07-13T04:22:32.249Z,19.46
2018-07-13T04:25:01.410Z,19.36
2018-07-13T04:27:31.214Z,19.48
2018-07-13T04:30:00.394Z,19.16
2018-07-13T04:32:29.490Z,19.32
2018-07-13T04:34:58.653Z,19.08
2018-07-13T04:37:27.841Z,19.17
2018-07-13T04:39:56.969Z,19.39
2018-07-13T04:42:26.151Z,19.30
2018-07-13T04:44:55.317Z,19.43
2018-07-13T04:47:24.465Z,19.24
2018-07-13T04:49:53.626Z,19.27
2018-07-13T04:52:22.799Z,19.36
2018-07-13T04:54:52.225Z,19.32
2018-07-13T04:57:21.536Z,19.12
2018-07-13T04:59:50.722Z,18.94
2018-07-13T05:02:19.905Z,18.85
2018-07-13T05:04:49.147Z,18.92
2018-07-13T05:07:18.301Z,18.78
2018-07-13T05:09:47.483Z,18.78
2018-07-13T05:12:16.745Z,18.52
2018-07-13T05:14:45.861Z,18.56
2018-07-13T05:17:14.986Z,18.94
2018-07-13T05:19:44.090Z,19.01
2018-07-13T05:22:13.261Z,19.14
2018-07-13T05:24:42.412Z,19.33
2018-07-13T05:27:11.658Z,19.36
2018-07-13T05:29:40.771Z,19.27
2018-07-13T05:32:09.954Z,19.46
2018-07-13T05:34:39.286Z,19.47
2018-07-13T05:37:08.585Z,19.34
2018-07-13T05:39:37.749Z,19.35
2018-07-13T05:42:07.109Z,19.16
2018-07-13T05:44:36.265Z,19.20
2018-07-13T05:47:05.435Z,19.52
2018-07-13T05:49:34.642Z,19.66
2018-07-13T05:52:03.925Z,19.91
2018-07-13T05:54:33.070Z,19.95
2018-07-13T05:57:02.234Z,19.51
2018-07-13T05:59:31.421Z,19.16
2018-07-13T06:02:00.649Z,18.90
2018-07-13T06:04:29.840Z,18.84
2018-07-13T06:06:58.989Z,18.81
2018-07-13T06:09:28.192Z,18.69
2018-07-13T06:11:59.677Z,19.02
2018-07-13T06:14:28.858Z,19.61
2018-07-13T06:16:57.953Z,19.27
2018-07-13T06:19:27.093Z,19.08
2018-07-13T06:21:57.333Z,19.54
2018-07-13T06:24:26.507Z,20.06
2018-07-13T06:26:55.650Z,20.04
2018-07-13T06:29:24.766Z,20.11
2018-07-13T06:31:53.889Z,20.14
2018-07-13T06:34:23.051Z,20.11
2018-07-13T06:36:52.197Z,20.24
2018-07-13T06:39:21.360Z,19.98
2018-07-13T06:41:50.695Z,19.90
2018-07-13T06:44:19.838Z,20.12
2018-07-13T06:46:48.956Z,20.44
2018-07-13T06:49:18.141Z,19.89
2018-07-13T06:51:47.340Z,20.01
2018-07-13T06:54:16.676Z,20.23
2018-07-13T06:56:45.954Z,20.33
2018-07-13T06:59:16.337Z,20.73
2018-07-13T07:01:45.934Z,20.92
2018-07-13T07:04:36.757Z,20.92
2018-07-13T07:07:08.945Z,21.59
2018-07-13T07:09:38.666Z,20.49
2018-07-13T07:13:16.043Z,20.96
2018-07-13T07:15:44.909Z,21.91
2018-07-13T07:18:14.049Z,21.28
2018-07-13T07:20:43.725Z,20.94
2018-07-13T07:23:13.561Z,21.48
2018-07-13T07:25:42.726Z,21.88
2018-07-13T07:28:11.870Z,22.35
2018-07-13T07:30:41.127Z,22.27
2018-07-13T07:33:13.493Z,21.99
2018-07-13T07:35:42.645Z,21.91
2018-07-13T07:38:11.765Z,22.23
2018-07-13T07:40:40.946Z,22.26
2018-07-13T07:43:10.138Z,22.21
2018-07-13T07:45:42.692Z,22.32
2018-07-13T07:48:11.937Z,21.86
2018-07-13T07:50:41.197Z,22.53
2018-07-13T07:53:10.325Z,22.39
2018-07-13T07:55:39.724Z,23.20
2018-07-13T07:58:08.881Z,23.35
2018-07-13T08:00:38.009Z,24.04
2018-07-13T08:03:07.797Z,24.15
2018-07-13T08:05:36.921Z,24.28
2018-07-13T08:08:06.261Z,23.92
2018-07-13T08:10:35.379Z,23.50
2018-07-13T08:13:05.413Z,24.20
2018-07-13T08:15:34.577Z,24.00
2018-07-13T08:18:03.744Z,23.95
2018-07-13T08:20:35.027Z,23.46
2018-07-13T08:23:07.345Z,24.22
2018-07-13T08:25:36.954Z,23.88
2018-07-13T08:28:07.045Z,23.80
2018-07-13T08:30:41.685Z,23.81
2018-07-13T08:33:10.797Z,24.18
2018-07-13T08:35:39.973Z,24.41
2018-07-13T08:38:09.150Z,24.45
2018-07-13T08:40:46.797Z,24.93
2018-07-13T08:43:15.996Z,25.07
2018-07-13T08:45:45.188Z,23.89
2018-07-13T08:48:14.261Z,24.07
2018-07-13T08:50:43.411Z,24.47
2018-07-13T08:53:12.594Z,24.51
2018-07-13T08:55:41.765Z,25.18
2018-07-13T08:58:10.925Z,24.91
2018-07-13T09:00:40.194Z,26.16
2018-07-13T09:03:09.361Z,26.62
2018-07-13T09:05:38.529Z,26.62
2018-07-13T09:08:07.717Z,26.10
2018-07-13T09:10:36.853Z,25.98
2018-07-13T09:13:06.247Z,26.19
2018-07-13T09:15:35.365Z,25.32
2018-07-13T09:18:04.502Z,25.93
2018-07-13T09:20:33.654Z,26.99
2018-07-13T09:23:02.806Z,26.44
2018-07-13T09:25:31.974Z,26.70
2018-07-13T09:28:01.086Z,27.30
2018-07-13T09:30:30.261Z,26.92
2018-07-13T09:32:59.391Z,26.98
2018-07-13T09:35:28.583Z,27.48
2018-07-13T09:37:57.744Z,26.14
2018-07-13T09:40:26.897Z,26.60
2018-07-13T09:42:56.273Z,27.13
2018-07-13T09:45:25.405Z,26.97
2018-07-13T09:47:54.600Z,26.50
2018-07-13T09:50:23.750Z,26.80
2018-07-13T09:52:52.911Z,26.75
2018-07-13T09:55:22.046Z,26.93
2018-07-13T09:57:51.180Z,26.56
2018-07-13T10:00:20.293Z,26.75
2018-07-13T10:02:49.465Z,26.21
2018-07-13T10:05:18.611Z,26.84
2018-07-13T10:07:47.808Z,27.36
2018-07-13T10:10:16.974Z,27.24
2018-07-13T10:12:46.193Z,27.03
2018-07-13T10:15:15.349Z,26.58
2018-07-13T10:17:44.577Z,26.70
2018-07-13T10:20:13.730Z,26.95
2018-07-13T10:22:42.905Z,27.60
2018-07-13T10:25:12.075Z,27.12
2018-07-13T10:27:41.241Z,27.95
2018-07-13T10:30:12.170Z,28.43
2018-07-13T10:32:42.842Z,28.23
2018-07-13T10:35:13.110Z,28.20
2018-07-13T10:37:42.877Z,28.09
2018-07-13T10:40:15.705Z,27.90
2018-07-13T10:42:44.793Z,27.83
2018-07-13T10:45:13.941Z,28.35
2018-07-13T10:47:43.154Z,28.34
2018-07-13T10:50:12.233Z,27.95
2018-07-13T10:52:41.349Z,27.70
2018-07-13T10:55:10.460Z,28.23
2018-07-13T10:57:39.577Z,28.45
2018-07-13T11:00:08.711Z,27.86
2018-07-13T11:02:37.834Z,27.88
2018-07-13T11:05:06.929Z,27.45
2018-07-13T11:07:36.069Z,27.54
2018-07-13T11:10:05.709Z,27.40
2018-07-13T11:12:34.821Z,27.82
2018-07-13T11:15:03.977Z,27.24
2018-07-13T11:17:33.069Z,26.98
2018-07-13T11:20:02.219Z,27.39
2018-07-13T11:22:31.265Z,27.16
2018-07-13T11:25:00.389Z,27.42
2018-07-13T11:27:29.502Z,27.26
2018-07-13T11:29:58.605Z,27.49
2018-07-13T11:32:27.696Z,27.74
2018-07-13T11:34:56.938Z,27.84
2018-07-13T11:37:26.294Z,27.87
2018-07-13T11:39:55.325Z,28.37
2018-07-13T11:42:24.592Z,27.84
2018-07-13T11:44:53.694Z,27.67
2018-07-13T11:47:22.802Z,28.16
2018-07-13T11:49:51.989Z,28.35
2018-07-13T11:52:21.121Z,28.04
2018-07-13T11:54:50.234Z,28.89
2018-07-13T11:57:19.349Z,28.38
2018-07-13T11:59:48.482Z,28.15
2018-07-13T12:02:17.601Z,28.51
2018-07-13T12:04:46.714Z,28.45
2018-07-13T12:07:15.809Z,28.64
2018-07-13T12:09:44.934Z,28.40
2018-07-13T12:12:14.050Z,28.65
2018-07-13T12:14:43.158Z,28.86
2018-07-13T12:17:12.266Z,28.88
2018-07-13T12:19:41.395Z,28.70
2018-07-13T12:22:10.516Z,28.36
2018-07-13T12:24:39.637Z,28.28
2018-07-13T12:27:08.751Z,28.01
2018-07-13T12:29:37.925Z,28.46
2018-07-13T12:32:07.101Z,28.32
2018-07-13T12:34:37.301Z,28.63
2018-07-13T12:37:07.506Z,28.64
2018-07-13T12:39:36.668Z,28.33
2018-07-13T12:42:05.781Z,28.34
2018-07-13T12:44:34.873Z,28.35
2018-07-13T12:47:04.037Z,28.50
2018-07-13T12:49:33.169Z,28.80
2018-07-13T12:52:02.314Z,28.14
2018-07-13T12:54:31.454Z,27.64
2018-07-13T12:57:00.537Z,27.77
2018-07-13T12:59:29.682Z,28.42
2018-07-13T13:01:58.744Z,28.55
2018-07-13T13:04:27.856Z,28.15
2018-07-13T13:06:56.989Z,28.33
2018-07-13T13:09:26.145Z,27.75
2018-07-13T13:11:55.235Z,28.07
2018-07-13T13:14:24.373Z,28.11
2018-07-13T13:16:53.463Z,28.88
2018-07-13T13:19:22.565Z,28.68
2018-07-13T13:21:51.757Z,28.40
2018-07-13T13:24:20.786Z,28.22
2018-07-13T13:26:50.709Z,28.10
2018-07-13T13:29:19.837Z,28.10
2018-07-13T13:31:48.893Z,28.34
2018-07-13T13:34:17.981Z,28.01
2018-07-13T13:36:47.106Z,27.56
2018-07-13T13:39:16.299Z,27.92
2018-07-13T13:41:45.581Z,28.03
2018-07-13T13:44:14.692Z,28.37
2018-07-13T13:46:43.765Z,28.08
2018-07-13T13:49:12.889Z,27.89
2018-07-13T13:51:42.014Z,28.22
2018-07-13T13:54:11.114Z,28.02
2018-07-13T13:56:40.221Z,28.66
2018-07-13T13:59:09.347Z,28.84
2018-07-13T14:01:38.460Z,28.49
2018-07-13T14:04:07.573Z,28.53
2018-07-13T14:06:36.713Z,28.26
2018-07-13T14:09:07.831Z,27.95
2018-07-13T14:11:36.825Z,28.32
2018-07-13T14:14:05.972Z,28.03
2018-07-13T14:16:35.078Z,28.04
2018-07-13T14:19:04.173Z,28.50
2018-07-13T14:21:33.290Z,28.69
2018-07-13T14:24:02.434Z,28.56
2018-07-13T14:26:31.577Z,28.20
2018-07-13T14:29:01.798Z,28.25
2018-07-13T14:31:32.905Z,28.37
2018-07-13T14:34:02.002Z,28.48
2018-07-13T14:36:33.993Z,28.65
2018-07-13T14:39:03.230Z,28.00
2018-07-13T14:41:32.397Z,28.16
2018-07-13T14:44:01.542Z,27.99
2018-07-13T14:46:31.301Z,28.10
2018-07-13T14:49:00.509Z,28.32
2018-07-13T14:51:31.238Z,28.36
2018-07-13T14:54:00.569Z,28.04
2018-07-13T14:56:29.768Z,28.13
2018-07-13T14:58:58.887Z,28.38
2018-07-13T15:01:28.017Z,27.91
2018-07-13T15:03:57.157Z,27.91
2018-07-13T15:06:28.436Z,28.07
2018-07-13T15:09:00.893Z,27.95
2018-07-13T15:11:30.052Z,27.79
2018-07-13T15:13:59.298Z,28.34
2018-07-13T15:16:28.426Z,28.78
2018-07-13T15:18:57.985Z,28.70
2018-07-13T15:21:31.534Z,28.77
2018-07-13T15:24:00.754Z,28.60
2018-07-13T15:26:29.946Z,28.65
2018-07-13T15:28:59.038Z,28.87
2018-07-13T15:31:28.171Z,28.71
2018-07-13T15:33:57.285Z,28.54
2018-07-13T15:36:26.421Z,28.44
2018-07-13T15:38:55.565Z,28.49
2018-07-13T15:41:24.705Z,28.48
2018-07-13T15:43:53.813Z,28.37
2018-07-13T15:46:23.014Z,28.53
2018-07-13T15:48:52.250Z,28.45
2018-07-13T15:51:21.349Z,28.37
2018-07-13T15:53:51.545Z,28.21
2018-07-13T15:56:20.672Z,28.16
2018-07-13T15:58:49.901Z,28.06
2018-07-13T16:01:19.192Z,28.13
2018-07-13T16:03:50.333Z,27.94
2018-07-13T16:06:19.471Z,28.07
2018-07-13T16:08:51.862Z,28.20
2018-07-13T16:11:21.033Z,28.06
2018-07-13T16:13:50.317Z,28.09
2018-07-13T16:16:19.559Z,28.17
2018-07-13T16:18:49.586Z,27.88
2018-07-13T16:21:19.738Z,27.80
2018-07-13T16:23:49.834Z,27.69
2018-07-13T16:26:19.882Z,27.64
2018-07-13T16:28:49.133Z,27.49
2018-07-13T16:31:24.230Z,27.72
2018-07-13T16:34:06.541Z,27.68
2018-07-13T16:36:36.545Z,27.52
2018-07-13T16:39:18.109Z,27.67
2018-07-13T16:41:58.959Z,27.74
2018-07-13T16:44:29.142Z,27.80
2018-07-13T16:46:59.350Z,27.70
2018-07-13T16:49:28.482Z,27.59
2018-07-13T16:51:57.691Z,27.75
2018-07-13T16:54:26.754Z,27.57
2018-07-13T16:56:55.881Z,27.64
2018-07-13T16:59:25.040Z,27.64
2018-07-13T17:01:54.149Z,27.51
2018-07-13T17:04:23.261Z,27.59
2018-07-13T17:06:52.405Z,27.53
2018-07-13T17:09:21.510Z,27.27
2018-07-13T17:11:50.752Z,27.38
2018-07-13T17:14:19.841Z,27.46
2018-07-13T17:16:53.657Z,27.36
2018-07-13T17:19:22.813Z,27.46
2018-07-13T17:21:51.980Z,27.46
2018-07-13T17:24:21.085Z,27.54
2018-07-13T17:26:58.405Z,27.59
2018-07-13T17:29:28.541Z,27.60
2018-07-13T17:31:57.657Z,27.54
2018-07-13T17:34:26.740Z,27.63
2018-07-13T17:36:56.939Z,27.59
2018-07-13T17:39:27.134Z,27.66
2018-07-13T17:42:03.387Z,27.69
2018-07-13T17:44:32.609Z,27.50
2018-07-13T17:47:02.777Z,27.48
2018-07-13T17:49:31.993Z,27.56
2018-07-13T17:52:01.123Z,27.64
2018-07-13T17:54:30.333Z,27.62
2018-07-13T17:56:59.554Z,27.60
2018-07-13T17:59:28.719Z,27.55
2018-07-13T18:01:57.894Z,27.43
2018-07-13T18:04:27.029Z,27.40
2018-07-13T18:06:56.141Z,27.25
2018-07-13T18:09:25.747Z,27.30
2018-07-13T18:12:01.455Z,27.37
2018-07-13T18:14:30.585Z,27.28
2018-07-13T18:16:59.705Z,27.22
2018-07-13T18:19:28.845Z,27.19
2018-07-13T18:21:57.951Z,27.13
2018-07-13T18:24:27.109Z,26.95
2018-07-13T18:26:56.225Z,26.87
2018-07-13T18:29:31.754Z,26.90
2018-07-13T18:32:00.929Z,26.81
2018-07-13T18:34:48.776Z,26.81
2018-07-13T18:37:17.939Z,26.68
2018-07-13T18:39:47.079Z,26.58
2018-07-13T18:42:19.661Z,26.58
2018-07-13T18:44:48.885Z,26.58
2018-07-13T18:47:18.038Z,26.42
2018-07-13T18:49:47.195Z,26.43
2018-07-13T18:52:16.346Z,26.31
2018-07-13T18:54:45.463Z,26.32
2018-07-13T18:57:14.637Z,26.22
2018-07-13T18:59:43.730Z,26.19
2018-07-13T19:02:12.867Z,26.29
2018-07-13T19:04:41.999Z,26.23
2018-07-13T19:07:11.154Z,26.16
2018-07-13T19:09:40.288Z,26.11
2018-07-13T19:12:09.424Z,26.08
2018-07-13T19:14:52.059Z,25.98
2018-07-13T19:17:22.286Z,25.88
2018-07-13T19:19:51.390Z,25.78
2018-07-13T19:22:20.510Z,25.81
2018-07-13T19:25:01.050Z,25.75
2018-07-13T19:27:30.173Z,25.59
2018-07-13T19:30:01.366Z,25.52
2018-07-13T19:32:30.533Z,25.37
2018-07-13T19:35:00.701Z,25.34
2018-07-13T19:37:29.819Z,25.34
2018-07-13T19:39:59.025Z,25.17
2018-07-13T19:42:28.328Z,25.29
2018-07-13T19:44:57.321Z,25.39
2018-07-13T19:47:26.466Z,25.10
2018-07-13T19:49:55.602Z,25.11
2018-07-13T19:52:24.702Z,25.00
2018-07-13T19:54:53.832Z,24.85
2018-07-13T19:57:24.116Z,24.87
2018-07-13T19:59:54.433Z,24.70
2018-07-13T20:02:23.658Z,24.55
2018-07-13T20:05:02.674Z,24.52
2018-07-13T20:07:35.240Z,24.41
2018-07-13T20:10:04.570Z,24.43
2018-07-13T20:12:33.930Z,24.23
2018-07-13T20:15:05.185Z,24.17
2018-07-13T20:17:39.782Z,24.39
2018-07-13T20:20:09.597Z,24.21
2018-07-13T20:22:39.039Z,23.95
2018-07-13T20:25:08.553Z,23.73
2018-07-13T20:27:37.894Z,23.80
2018-07-13T20:30:07.564Z,23.70
2018-07-13T20:32:37.755Z,23.76
2018-07-13T20:35:06.898Z,23.56
2018-07-13T20:37:36.992Z,23.72
2018-07-13T20:40:07.651Z,23.42
2018-07-13T20:42:36.769Z,23.39
2018-07-13T20:45:05.906Z,23.32
2018-07-13T20:47:35.054Z,23.25
2018-07-13T20:50:04.165Z,23.24
2018-07-13T20:52:33.292Z,23.25
2018-07-13T20:55:02.486Z,23.36
2018-07-13T20:57:31.605Z,23.04
2018-07-13T21:00:00.870Z,23.04
2018-07-13T21:02:29.974Z,22.87
2018-07-13T21:04:59.081Z,22.92
2018-07-13T21:07:28.189Z,22.92
2018-07-13T21:09:57.318Z,22.88
2018-07-13T21:12:26.473Z,22.80
2018-07-13T21:14:55.673Z,22.88
2018-07-13T21:17:24.800Z,22.68
2018-07-13T21:19:53.895Z,22.73
2018-07-13T21:22:23.035Z,22.36
2018-07-13T21:24:52.324Z,22.50
2018-07-13T21:27:21.489Z,22.57
2018-07-13T21:29:50.582Z,22.33
2018-07-13T21:32:19.690Z,22.33
2018-07-13T21:34:48.798Z,22.28
2018-07-13T21:37:17.933Z,22.16
2018-07-13T21:39:47.035Z,22.18
2018-07-13T21:42:16.145Z,22.21
2018-07-13T21:44:45.245Z,22.09
2018-07-13T21:47:14.361Z,21.88
2018-07-13T21:49:43.468Z,21.98
2018-07-13T21:52:12.662Z,21.89
2018-07-13T21:54:41.696Z,22.04
2018-07-13T21:57:10.834Z,22.01
2018-07-13T21:59:40.110Z,22.20
2018-07-13T22:02:09.218Z,22.10
2018-07-13T22:04:38.317Z,21.95
2018-07-13T22:07:07.438Z,21.95
2018-07-13T22:09:36.532Z,21.77
2018-07-13T22:12:05.714Z,21.73
2018-07-13T22:14:34.837Z,21.85
2018-07-13T22:17:03.973Z,22.66
2018-07-13T22:19:34.120Z,21.80
2018-07-13T22:22:03.826Z,21.87
2018-07-13T22:24:33.002Z,22.12
2018-07-13T22:27:02.133Z,22.01
2018-07-13T22:29:31.849Z,21.76
2018-07-13T22:32:00.986Z,21.63
2018-07-13T22:34:30.128Z,21.75
2018-07-13T22:36:59.248Z,21.60
2018-07-13T22:39:28.340Z,21.72
2018-07-13T22:42:01.311Z,21.48
2018-07-13T22:44:30.424Z,22.34
2018-07-13T22:46:59.629Z,22.72
2018-07-13T22:49:28.738Z,22.45
2018-07-13T22:52:01.106Z,22.81
2018-07-13T22:54:30.228Z,22.72
2018-07-13T22:56:59.346Z,22.67
2018-07-13T22:59:32.001Z,23.07
2018-07-13T23:02:01.209Z,23.03
2018-07-13T23:04:34.399Z,23.25
2018-07-13T23:07:03.574Z,23.40
2018-07-13T23:09:32.694Z,23.42
2018-07-13T23:12:01.870Z,23.46
2018-07-13T23:14:30.997Z,23.37
2018-07-13T23:17:00.110Z,23.21
2018-07-13T23:19:30.164Z,23.42
2018-07-13T23:21:59.281Z,23.46
2018-07-13T23:24:28.400Z,23.24
2018-07-13T23:26:57.509Z,23.27
2018-07-13T23:29:28.664Z,23.20
2018-07-13T23:31:57.765Z,23.38
2018-07-13T23:34:26.913Z,23.41
2018-07-13T23:36:56.059Z,23.50
2018-07-13T23:39:25.152Z,23.46
2018-07-13T23:41:54.277Z,23.57
2018-07-13T23:44:23.361Z,23.47
2018-07-13T23:46:52.513Z,23.14
2018-07-13T23:49:21.621Z,23.47
2018-07-13T23:51:50.733Z,23.43
2018-07-13T23:54:19.830Z,23.47
2018-07-13T23:56:49.121Z,23.38
2018-07-13T23:59:18.250Z,23.52
